sensor_id;sensor_type;location;lat;lon;timestamp;pressure;altitude;pressure_sealevel;temperature;humidity
32131;BME280;18639;50.716;7.086;2022-11-12T00:00:42;101948.19;;;8.85;100.00
32131;BME280;18639;50.716;7.086;2022-11-12T00:03:07;101935.53;;;8.77;100.00
32131;BME280;18639;50.716;7.086;2022-11-12T00:05:33;101939.91;;;8.75;100.00
32131;BME280;18639;50.716;7.086;2022-11-12T00:07:58;101935.13;;;8.63;100.00
32131;BME280;18639;50.716;7.086;2022-11-12T00:10:26;101925.88;;;8.56;100.00
32131;BME280;18639;50.716;7.086;2022-11-12T00:12:51;101907.59;;;8.37;100.00
32131;BME280;18639;50.716;7.086;2022-11-12T00:15:17;101946.34;;;8.61;100.00
32131;BME280;18639;50.716;7.086;2022-11-12T00:17:42;101930.63;;;8.42;100.00
32131;BME280;18639;50.716;7.086;2022-11-12T00:20:08;101943.59;;;8.39;100.00
32131;BME280;18639;50.716;7.086;2022-11-12T00:22:33;101968.06;;;8.54;100.00
32131;BME280;18639;50.716;7.086;2022-11-12T00:24:59;101926.81;;;8.24;100.00
32131;BME280;18639;50.716;7.086;2022-11-12T00:27:24;101947.28;;;8.30;100.00
32131;BME280;18639;50.716;7.086;2022-11-12T00:29:50;101961.28;;;8.20;100.00
32131;BME280;18639;50.716;7.086;2022-11-12T00:32:15;101972.19;;;8.30;100.00
32131;BME280;18639;50.716;7.086;2022-11-12T00:34:41;101938.59;;;8.03;100.00
32131;BME280;18639;50.716;7.086;2022-11-12T00:37:06;101954.78;;;8.07;100.00
32131;BME280;18639;50.716;7.086;2022-11-12T00:39:32;101969.31;;;8.10;100.00
32131;BME280;18639;50.716;7.086;2022-11-12T00:41:57;101975.47;;;8.04;100.00
32131;BME280;18639;50.716;7.086;2022-11-12T00:44:22;101978.19;;;7.99;100.00
32131;BME280;18639;50.716;7.086;2022-11-12T00:46:48;101896.47;;;7.46;100.00
32131;BME280;18639;50.716;7.086;2022-11-12T00:49:13;101975.88;;;7.90;100.00
32131;BME280;18639;50.716;7.086;2022-11-12T00:51:39;101932.19;;;7.56;100.00
32131;BME280;18639;50.716;7.086;2022-11-12T00:54:05;101952.63;;;7.61;100.00
32131;BME280;18639;50.716;7.086;2022-11-12T00:56:30;101909.47;;;7.40;100.00
32131;BME280;18639;50.716;7.086;2022-11-12T00:58:59;101909.66;;;7.32;100.00
32131;BME280;18639;50.716;7.086;2022-11-12T01:01:25;101956.47;;;7.77;100.00
32131;BME280;18639;50.716;7.086;2022-11-12T01:03:50;101976.75;;;7.89;100.00
32131;BME280;18639;50.716;7.086;2022-11-12T01:06:20;101896.44;;;7.47;100.00
32131;BME280;18639;50.716;7.086;2022-11-12T01:08:46;101931.59;;;7.78;100.00
32131;BME280;18639;50.716;7.086;2022-11-12T01:11:13;101940.72;;;7.89;100.00
32131;BME280;18639;50.716;7.086;2022-11-12T01:13:42;101908.47;;;7.76;100.00
32131;BME280;18639;50.716;7.086;2022-11-12T01:16:09;101947.28;;;7.99;100.00
32131;BME280;18639;50.716;7.086;2022-11-12T01:18:35;101937.88;;;7.98;100.00
32131;BME280;18639;50.716;7.086;2022-11-12T01:21:01;101929.25;;;8.01;100.00
32131;BME280;18639;50.716;7.086;2022-11-12T01:23:27;101970.63;;;8.23;100.00
32131;BME280;18639;50.716;7.086;2022-11-12T01:25:52;101963.72;;;8.25;100.00
32131;BME280;18639;50.716;7.086;2022-11-12T01:28:18;101959.69;;;8.16;100.00
32131;BME280;18639;50.716;7.086;2022-11-12T01:30:43;101949.91;;;7.98;100.00
32131;BME280;18639;50.716;7.086;2022-11-12T01:33:09;101918.47;;;7.87;100.00
32131;BME280;18639;50.716;7.086;2022-11-12T01:35:34;101959.00;;;8.10;100.00
32131;BME280;18639;50.716;7.086;2022-11-12T01:37:59;101954.84;;;8.06;100.00
32131;BME280;18639;50.716;7.086;2022-11-12T01:40:25;101950.75;;;7.98;100.00
32131;BME280;18639;50.716;7.086;2022-11-12T01:42:53;101966.09;;;8.01;100.00
32131;BME280;18639;50.716;7.086;2022-11-12T01:45:19;101956.06;;;7.92;100.00
32131;BME280;18639;50.716;7.086;2022-11-12T01:47:46;101971.44;;;7.95;100.00
32131;BME280;18639;50.716;7.086;2022-11-12T01:50:27;101979.22;;;7.92;100.00
32131;BME280;18639;50.716;7.086;2022-11-12T01:52:58;101987.09;;;7.86;100.00
32131;BME280;18639;50.716;7.086;2022-11-12T01:55:28;101879.78;;;7.28;100.00
32131;BME280;18639;50.716;7.086;2022-11-12T01:57:59;101922.34;;;7.40;100.00
32131;BME280;18639;50.716;7.086;2022-11-12T02:00:29;101934.16;;;7.47;100.00
32131;BME280;18639;50.716;7.086;2022-11-12T02:02:58;101936.75;;;7.45;100.00
32131;BME280;18639;50.716;7.086;2022-11-12T02:05:24;101965.47;;;7.63;100.00
32131;BME280;18639;50.716;7.086;2022-11-12T02:07:51;101892.28;;;7.09;100.00
32131;BME280;18639;50.716;7.086;2022-11-12T02:10:18;101887.06;;;7.11;100.00
32131;BME280;18639;50.716;7.086;2022-11-12T02:12:44;101964.78;;;7.56;100.00
32131;BME280;18639;50.716;7.086;2022-11-12T02:15:28;101953.22;;;7.38;100.00
32131;BME280;18639;50.716;7.086;2022-11-12T02:17:54;101967.72;;;7.42;100.00
32131;BME280;18639;50.716;7.086;2022-11-12T02:20:20;101941.47;;;7.28;100.00
32131;BME280;18639;50.716;7.086;2022-11-12T02:22:45;101947.19;;;7.39;100.00
32131;BME280;18639;50.716;7.086;2022-11-12T02:25:13;101931.63;;;7.11;100.00
32131;BME280;18639;50.716;7.086;2022-11-12T02:27:41;101905.50;;;6.94;100.00
32131;BME280;18639;50.716;7.086;2022-11-12T02:30:07;101976.47;;;7.34;100.00
32131;BME280;18639;50.716;7.086;2022-11-12T02:32:33;101959.78;;;7.16;100.00
32131;BME280;18639;50.716;7.086;2022-11-12T02:34:58;101963.19;;;7.16;100.00
32131;BME280;18639;50.716;7.086;2022-11-12T02:37:23;101907.75;;;6.72;100.00
32131;BME280;18639;50.716;7.086;2022-11-12T02:39:48;101968.41;;;7.13;100.00
32131;BME280;18639;50.716;7.086;2022-11-12T02:42:14;101962.72;;;7.01;100.00
32131;BME280;18639;50.716;7.086;2022-11-12T02:44:39;101942.53;;;6.86;100.00
32131;BME280;18639;50.716;7.086;2022-11-12T02:47:05;101896.75;;;6.66;100.00
32131;BME280;18639;50.716;7.086;2022-11-12T02:49:30;101972.00;;;7.06;100.00
32131;BME280;18639;50.716;7.086;2022-11-12T02:51:55;101951.91;;;6.88;100.00
32131;BME280;18639;50.716;7.086;2022-11-12T02:54:21;101900.56;;;6.50;100.00
32131;BME280;18639;50.716;7.086;2022-11-12T02:56:46;101940.06;;;6.81;100.00
32131;BME280;18639;50.716;7.086;2022-11-12T02:59:11;101969.91;;;6.87;100.00
32131;BME280;18639;50.716;7.086;2022-11-12T03:01:36;101979.38;;;6.85;100.00
32131;BME280;18639;50.716;7.086;2022-11-12T03:04:02;101937.16;;;6.58;100.00
32131;BME280;18639;50.716;7.086;2022-11-12T03:06:27;101973.97;;;6.95;100.00
32131;BME280;18639;50.716;7.086;2022-11-12T03:08:53;101950.44;;;6.78;100.00
32131;BME280;18639;50.716;7.086;2022-11-12T03:11:18;101969.09;;;6.85;100.00
32131;BME280;18639;50.716;7.086;2022-11-12T03:13:43;101940.22;;;6.73;100.00
32131;BME280;18639;50.716;7.086;2022-11-12T03:16:09;101957.41;;;6.73;100.00
32131;BME280;18639;50.716;7.086;2022-11-12T03:18:34;101974.22;;;6.86;100.00
32131;BME280;18639;50.716;7.086;2022-11-12T03:21:00;101866.09;;;6.21;100.00
32131;BME280;18639;50.716;7.086;2022-11-12T03:23:26;101882.84;;;6.38;100.00
32131;BME280;18639;50.716;7.086;2022-11-12T03:25:52;101876.03;;;6.37;100.00
32131;BME280;18639;50.716;7.086;2022-11-12T03:28:17;101894.69;;;6.45;100.00
32131;BME280;18639;50.716;7.086;2022-11-12T03:30:43;101907.09;;;6.63;100.00
32131;BME280;18639;50.716;7.086;2022-11-12T03:33:11;101955.25;;;6.90;100.00
32131;BME280;18639;50.716;7.086;2022-11-12T03:35:37;101951.06;;;6.88;100.00
32131;BME280;18639;50.716;7.086;2022-11-12T03:38:03;101903.00;;;6.56;100.00
32131;BME280;18639;50.716;7.086;2022-11-12T03:40:30;101880.81;;;6.52;100.00
32131;BME280;18639;50.716;7.086;2022-11-12T03:42:56;101920.63;;;6.69;100.00
32131;BME280;18639;50.716;7.086;2022-11-12T03:45:24;101878.22;;;6.53;100.00
32131;BME280;18639;50.716;7.086;2022-11-12T03:47:52;101911.97;;;6.73;100.00
32131;BME280;18639;50.716;7.086;2022-11-12T03:50:20;101944.63;;;7.05;100.00
32131;BME280;18639;50.716;7.086;2022-11-12T03:52:49;101885.91;;;6.55;100.00
32131;BME280;18639;50.716;7.086;2022-11-12T03:55:16;101948.16;;;7.01;100.00
32131;BME280;18639;50.716;7.086;2022-11-12T03:57:43;101816.59;;;6.16;100.00
32131;BME280;18639;50.716;7.086;2022-11-12T04:00:10;101846.13;;;6.36;100.00
32131;BME280;18639;50.716;7.086;2022-11-12T04:02:36;101842.00;;;6.28;100.00
32131;BME280;18639;50.716;7.086;2022-11-12T04:05:03;101868.19;;;6.43;100.00
32131;BME280;18639;50.716;7.086;2022-11-12T04:08:05;101840.22;;;6.30;100.00
32131;BME280;18639;50.716;7.086;2022-11-12T04:10:51;101865.72;;;6.40;100.00
32131;BME280;18639;50.716;7.086;2022-11-12T04:13:16;101947.88;;;6.78;100.00
32131;BME280;18639;50.716;7.086;2022-11-12T04:16:09;101909.75;;;6.60;100.00
32131;BME280;18639;50.716;7.086;2022-11-12T04:18:55;101938.66;;;6.68;100.00
32131;BME280;18639;50.716;7.086;2022-11-12T04:21:44;101921.22;;;6.45;100.00
32131;BME280;18639;50.716;7.086;2022-11-12T04:24:25;101923.72;;;6.47;100.00
32131;BME280;18639;50.716;7.086;2022-11-12T04:27:15;101918.59;;;6.47;100.00
32131;BME280;18639;50.716;7.086;2022-11-12T04:29:41;101909.38;;;6.38;100.00
32131;BME280;18639;50.716;7.086;2022-11-12T04:32:26;101927.03;;;6.52;100.00
32131;BME280;18639;50.716;7.086;2022-11-12T04:34:51;101920.38;;;6.45;100.00
32131;BME280;18639;50.716;7.086;2022-11-12T04:37:17;101921.38;;;6.38;100.00
32131;BME280;18639;50.716;7.086;2022-11-12T04:39:43;101889.28;;;6.18;100.00
32131;BME280;18639;50.716;7.086;2022-11-12T04:42:09;101926.41;;;6.42;100.00
32131;BME280;18639;50.716;7.086;2022-11-12T04:44:54;101925.66;;;6.37;100.00
32131;BME280;18639;50.716;7.086;2022-11-12T04:47:38;101945.28;;;6.40;100.00
32131;BME280;18639;50.716;7.086;2022-11-12T04:50:13;101921.53;;;6.30;100.00
32131;BME280;18639;50.716;7.086;2022-11-12T04:52:38;101909.72;;;6.23;100.00
32131;BME280;18639;50.716;7.086;2022-11-12T04:55:04;101928.44;;;6.26;100.00
32131;BME280;18639;50.716;7.086;2022-11-12T04:57:30;101881.16;;;5.98;100.00
32131;BME280;18639;50.716;7.086;2022-11-12T04:59:55;101850.69;;;5.81;100.00
32131;BME280;18639;50.716;7.086;2022-11-12T05:02:20;101905.66;;;6.13;100.00
32131;BME280;18639;50.716;7.086;2022-11-12T05:04:46;101926.84;;;6.21;100.00
32131;BME280;18639;50.716;7.086;2022-11-12T05:07:12;101925.25;;;6.17;100.00
32131;BME280;18639;50.716;7.086;2022-11-12T05:09:38;101921.91;;;6.12;100.00
32131;BME280;18639;50.716;7.086;2022-11-12T05:12:03;101887.28;;;5.91;100.00
32131;BME280;18639;50.716;7.086;2022-11-12T05:14:28;101910.94;;;6.05;100.00
32131;BME280;18639;50.716;7.086;2022-11-12T05:16:54;101889.75;;;5.96;100.00
32131;BME280;18639;50.716;7.086;2022-11-12T05:19:20;101907.50;;;6.06;100.00
32131;BME280;18639;50.716;7.086;2022-11-12T05:21:45;101904.09;;;6.04;100.00
32131;BME280;18639;50.716;7.086;2022-11-12T05:24:30;101892.25;;;5.99;100.00
32131;BME280;18639;50.716;7.086;2022-11-12T05:26:55;101901.53;;;6.04;100.00
32131;BME280;18639;50.716;7.086;2022-11-12T05:29:20;101893.66;;;6.13;100.00
32131;BME280;18639;50.716;7.086;2022-11-12T05:31:45;101885.22;;;6.08;100.00
32131;BME280;18639;50.716;7.086;2022-11-12T05:34:11;101898.59;;;6.22;100.00
32131;BME280;18639;50.716;7.086;2022-11-12T05:36:37;101884.09;;;6.20;100.00
32131;BME280;18639;50.716;7.086;2022-11-12T05:39:02;101862.06;;;6.10;100.00
32131;BME280;18639;50.716;7.086;2022-11-12T05:41:28;101888.25;;;6.25;100.00
32131;BME280;18639;50.716;7.086;2022-11-12T05:43:53;101888.19;;;6.28;100.00
32131;BME280;18639;50.716;7.086;2022-11-12T05:46:19;101898.22;;;6.39;100.00
32131;BME280;18639;50.716;7.086;2022-11-12T05:48:44;101874.53;;;6.28;100.00
32131;BME280;18639;50.716;7.086;2022-11-12T05:51:09;101887.94;;;6.41;100.00
32131;BME280;18639;50.716;7.086;2022-11-12T05:53:38;101892.09;;;6.46;100.00
32131;BME280;18639;50.716;7.086;2022-11-12T05:56:04;101893.84;;;6.44;100.00
32131;BME280;18639;50.716;7.086;2022-11-12T05:58:30;101890.56;;;6.38;100.00
32131;BME280;18639;50.716;7.086;2022-11-12T06:00:56;101876.97;;;6.34;100.00
32131;BME280;18639;50.716;7.086;2022-11-12T06:03:22;101894.75;;;6.42;100.00
32131;BME280;18639;50.716;7.086;2022-11-12T06:05:48;101885.94;;;6.52;100.00
32131;BME280;18639;50.716;7.086;2022-11-12T06:08:13;101881.75;;;6.48;100.00
32131;BME280;18639;50.716;7.086;2022-11-12T06:10:39;101828.47;;;6.20;100.00
32131;BME280;18639;50.716;7.086;2022-11-12T06:13:05;101886.59;;;6.61;100.00
32131;BME280;18639;50.716;7.086;2022-11-12T06:15:30;101884.22;;;6.52;100.00
32131;BME280;18639;50.716;7.086;2022-11-12T06:17:55;101883.50;;;6.47;100.00
32131;BME280;18639;50.716;7.086;2022-11-12T06:20:21;101863.16;;;6.38;100.00
32131;BME280;18639;50.716;7.086;2022-11-12T06:22:47;101898.75;;;6.53;100.00
32131;BME280;18639;50.716;7.086;2022-11-12T06:25:13;101912.41;;;6.55;100.00
32131;BME280;18639;50.716;7.086;2022-11-12T06:27:38;101876.72;;;6.45;100.00
32131;BME280;18639;50.716;7.086;2022-11-12T06:30:05;101888.63;;;6.47;100.00
32131;BME280;18639;50.716;7.086;2022-11-12T06:32:30;101907.06;;;6.64;100.00
32131;BME280;18639;50.716;7.086;2022-11-12T06:34:56;101907.81;;;6.68;100.00
32131;BME280;18639;50.716;7.086;2022-11-12T06:37:21;101912.22;;;6.63;100.00
32131;BME280;18639;50.716;7.086;2022-11-12T06:39:47;101914.75;;;6.66;100.00
32131;BME280;18639;50.716;7.086;2022-11-12T06:42:13;101897.91;;;6.53;100.00
32131;BME280;18639;50.716;7.086;2022-11-12T06:44:38;101902.91;;;6.59;100.00
32131;BME280;18639;50.716;7.086;2022-11-12T06:47:04;101906.16;;;6.67;100.00
32131;BME280;18639;50.716;7.086;2022-11-12T06:49:29;101909.47;;;6.72;100.00
32131;BME280;18639;50.716;7.086;2022-11-12T06:51:54;101916.31;;;6.73;100.00
32131;BME280;18639;50.716;7.086;2022-11-12T06:54:20;101919.59;;;6.78;100.00
32131;BME280;18639;50.716;7.086;2022-11-12T06:56:45;101916.03;;;6.84;100.00
32131;BME280;18639;50.716;7.086;2022-11-12T06:59:10;101899.97;;;6.74;100.00
32131;BME280;18639;50.716;7.086;2022-11-12T07:01:35;101924.66;;;6.81;100.00
32131;BME280;18639;50.716;7.086;2022-11-12T07:04:01;101908.63;;;6.71;100.00
32131;BME280;18639;50.716;7.086;2022-11-12T07:06:26;101925.56;;;6.78;100.00
32131;BME280;18639;50.716;7.086;2022-11-12T07:08:51;101917.09;;;6.75;100.00
32131;BME280;18639;50.716;7.086;2022-11-12T07:11:18;101931.50;;;6.82;100.00
32131;BME280;18639;50.716;7.086;2022-11-12T07:13:44;101931.50;;;6.82;100.00
32131;BME280;18639;50.716;7.086;2022-11-12T07:16:10;101930.66;;;6.80;100.00
32131;BME280;18639;50.716;7.086;2022-11-12T07:18:37;101936.41;;;6.91;100.00
32131;BME280;18639;50.716;7.086;2022-11-12T07:21:05;101947.38;;;6.98;100.00
32131;BME280;18639;50.716;7.086;2022-11-12T07:23:32;101921.97;;;6.86;100.00
32131;BME280;18639;50.716;7.086;2022-11-12T07:26:03;101949.69;;;7.08;100.00
32131;BME280;18639;50.716;7.086;2022-11-12T07:28:29;101949.69;;;7.08;100.00
32131;BME280;18639;50.716;7.086;2022-11-12T07:30:56;101947.84;;;7.13;100.00
32131;BME280;18639;50.716;7.086;2022-11-12T07:33:22;101941.03;;;7.12;100.00
32131;BME280;18639;50.716;7.086;2022-11-12T07:35:47;101949.50;;;7.16;100.00
32131;BME280;18639;50.716;7.086;2022-11-12T07:38:13;101940.72;;;7.25;100.00
32131;BME280;18639;50.716;7.086;2022-11-12T07:40:38;101908.59;;;7.07;100.00
32131;BME280;18639;50.716;7.086;2022-11-12T07:43:03;101923.38;;;7.33;100.00
32131;BME280;18639;50.716;7.086;2022-11-12T07:45:29;101921.34;;;7.44;100.00
32131;BME280;18639;50.716;7.086;2022-11-12T07:47:57;101927.28;;;7.47;100.00
32131;BME280;18639;50.716;7.086;2022-11-12T07:50:23;101928.03;;;7.51;100.00
32131;BME280;18639;50.716;7.086;2022-11-12T07:52:48;101931.25;;;7.59;100.00
32131;BME280;18639;50.716;7.086;2022-11-12T07:55:14;101929.31;;;7.67;100.00
32131;BME280;18639;50.716;7.086;2022-11-12T07:57:39;101945.88;;;7.89;100.00
32131;BME280;18639;50.716;7.086;2022-11-12T08:00:05;101945.69;;;7.95;100.00
32131;BME280;18639;50.716;7.086;2022-11-12T08:02:31;101954.78;;;8.07;100.00
32131;BME280;18639;50.716;7.086;2022-11-12T08:04:56;101930.06;;;8.01;100.00
32131;BME280;18639;50.716;7.086;2022-11-12T08:07:21;101945.66;;;8.26;100.00
32131;BME280;18639;50.716;7.086;2022-11-12T08:09:46;101943.41;;;8.73;100.00
32131;BME280;18639;50.716;7.086;2022-11-12T08:12:12;101919.09;;;9.57;100.00
32131;BME280;18639;50.716;7.086;2022-11-12T08:14:37;101939.13;;;10.89;100.00
32131;BME280;18639;50.716;7.086;2022-11-12T08:17:02;101937.56;;;12.06;100.00
32131;BME280;18639;50.716;7.086;2022-11-12T08:19:28;101934.91;;;12.81;92.90
32131;BME280;18639;50.716;7.086;2022-11-12T08:21:53;101935.72;;;13.35;86.98
32131;BME280;18639;50.716;7.086;2022-11-12T08:24:18;101943.44;;;13.69;85.11
32131;BME280;18639;50.716;7.086;2022-11-12T08:26:46;101919.22;;;14.02;81.82
32131;BME280;18639;50.716;7.086;2022-11-12T08:29:11;101937.19;;;14.53;79.24
32131;BME280;18639;50.716;7.086;2022-11-12T08:31:37;101934.06;;;15.08;75.76
32131;BME280;18639;50.716;7.086;2022-11-12T08:34:03;101926.72;;;15.44;70.95
32131;BME280;18639;50.716;7.086;2022-11-12T08:36:36;101935.72;;;15.69;68.91
32131;BME280;18639;50.716;7.086;2022-11-12T08:39:02;101910.97;;;15.76;68.00
32131;BME280;18639;50.716;7.086;2022-11-12T08:41:27;101927.81;;;15.26;68.14
32131;BME280;18639;50.716;7.086;2022-11-12T08:43:52;101934.00;;;14.48;70.90
32131;BME280;18639;50.716;7.086;2022-11-12T08:46:18;101933.84;;;13.71;75.60
32131;BME280;18639;50.716;7.086;2022-11-12T08:48:43;101935.44;;;13.05;79.85
32131;BME280;18639;50.716;7.086;2022-11-12T08:51:08;101921.78;;;12.30;84.08
32131;BME280;18639;50.716;7.086;2022-11-12T08:53:34;101961.16;;;12.19;86.93
32131;BME280;18639;50.716;7.086;2022-11-12T08:55:59;101953.00;;;11.69;90.12
32131;BME280;18639;50.716;7.086;2022-11-12T08:58:25;101930.09;;;11.39;92.94
32131;BME280;18639;50.716;7.086;2022-11-12T09:00:51;101946.47;;;11.40;93.81
32131;BME280;18639;50.716;7.086;2022-11-12T09:03:19;101949.66;;;11.26;94.26
32131;BME280;18639;50.716;7.086;2022-11-12T09:05:44;101945.19;;;11.10;95.46
32131;BME280;18639;50.716;7.086;2022-11-12T09:08:13;101947.16;;;11.03;96.37
32131;BME280;18639;50.716;7.086;2022-11-12T09:10:39;101972.38;;;10.98;97.12
32131;BME280;18639;50.716;7.086;2022-11-12T09:13:05;101965.69;;;10.92;97.18
32131;BME280;18639;50.716;7.086;2022-11-12T09:15:30;101956.56;;;10.84;97.79
32131;BME280;18639;50.716;7.086;2022-11-12T09:17:57;101959.25;;;10.81;97.92
32131;BME280;18639;50.716;7.086;2022-11-12T09:20:23;101935.38;;;10.74;97.52
32131;BME280;18639;50.716;7.086;2022-11-12T09:22:49;101950.66;;;10.80;98.51
32131;BME280;18639;50.716;7.086;2022-11-12T09:25:15;101894.03;;;10.52;97.67
32131;BME280;18639;50.716;7.086;2022-11-12T09:27:40;101954.41;;;10.73;95.73
32131;BME280;18639;50.716;7.086;2022-11-12T09:30:06;101970.16;;;10.89;95.97
32131;BME280;18639;50.716;7.086;2022-11-12T09:32:32;101960.81;;;10.85;95.06
32131;BME280;18639;50.716;7.086;2022-11-12T09:34:57;101962.00;;;10.78;94.31
32131;BME280;18639;50.716;7.086;2022-11-12T09:37:22;101964.34;;;10.84;96.05
32131;BME280;18639;50.716;7.086;2022-11-12T09:39:48;101959.81;;;10.89;95.83
32131;BME280;18639;50.716;7.086;2022-11-12T09:42:15;101958.97;;;11.10;95.85
32131;BME280;18639;50.716;7.086;2022-11-12T09:44:43;101944.78;;;11.19;95.35
32131;BME280;18639;50.716;7.086;2022-11-12T09:47:12;101952.50;;;11.61;92.51
32131;BME280;18639;50.716;7.086;2022-11-12T09:49:47;101951.00;;;11.96;90.58
32131;BME280;18639;50.716;7.086;2022-11-12T09:52:22;101952.25;;;12.24;90.24
32131;BME280;18639;50.716;7.086;2022-11-12T09:54:54;101905.22;;;11.96;89.78
32131;BME280;18639;50.716;7.086;2022-11-12T09:57:23;101947.28;;;12.20;89.71
32131;BME280;18639;50.716;7.086;2022-11-12T09:59:49;101952.84;;;12.12;90.55
32131;BME280;18639;50.716;7.086;2022-11-12T10:02:31;101943.66;;;12.05;89.66
32131;BME280;18639;50.716;7.086;2022-11-12T10:05:29;101954.06;;;11.85;90.19
32131;BME280;18639;50.716;7.086;2022-11-12T10:08:05;101947.00;;;11.68;91.44
32131;BME280;18639;50.716;7.086;2022-11-12T10:10:47;101940.91;;;11.49;93.15
32131;BME280;18639;50.716;7.086;2022-11-12T10:13:49;101945.91;;;11.54;93.40
32131;BME280;18639;50.716;7.086;2022-11-12T10:16:47;101935.34;;;11.38;94.58
32131;BME280;18639;50.716;7.086;2022-11-12T10:24:36;101929.41;;;11.16;96.95
32131;BME280;18639;50.716;7.086;2022-11-12T10:27:18;101929.72;;;11.08;96.35
32131;BME280;18639;50.716;7.086;2022-11-12T10:30:00;101933.59;;;11.18;96.38
32131;BME280;18639;50.716;7.086;2022-11-12T10:32:26;101912.13;;;11.16;96.88
32131;BME280;18639;50.716;7.086;2022-11-12T10:34:51;101925.31;;;11.30;96.69
32131;BME280;18639;50.716;7.086;2022-11-12T10:39:45;101919.31;;;11.30;96.03
32131;BME280;18639;50.716;7.086;2022-11-12T10:42:21;101909.91;;;11.27;97.25
32131;BME280;18639;50.716;7.086;2022-11-12T10:44:47;101915.47;;;11.38;96.20
32131;BME280;18639;50.716;7.086;2022-11-12T10:52:34;101901.56;;;11.41;96.50
32131;BME280;18639;50.716;7.086;2022-11-12T10:55:16;101912.31;;;11.52;96.21
32131;BME280;18639;50.716;7.086;2022-11-12T10:57:42;101901.13;;;11.52;96.67
32131;BME280;18639;50.716;7.086;2022-11-12T11:00:14;101917.66;;;11.68;97.37
32131;BME280;18639;50.716;7.086;2022-11-12T11:02:53;101853.31;;;11.40;96.63
32131;BME280;18639;50.716;7.086;2022-11-12T11:05:49;101898.94;;;11.81;95.66
32131;BME280;18639;50.716;7.086;2022-11-12T11:08:35;101901.63;;;11.80;93.60
32131;BME280;18639;50.716;7.086;2022-11-12T11:11:16;101907.44;;;11.85;95.04
32131;BME280;18639;50.716;7.086;2022-11-12T11:13:46;101898.63;;;11.89;94.80
32131;BME280;18639;50.716;7.086;2022-11-12T11:16:21;101901.41;;;12.03;95.08
32131;BME280;18639;50.716;7.086;2022-11-12T11:18:50;101880.22;;;11.95;95.54
32131;BME280;18639;50.716;7.086;2022-11-12T11:24:24;101890.66;;;12.12;93.08
32131;BME280;18639;50.716;7.086;2022-11-12T11:29:46;101897.00;;;12.24;93.22
32131;BME280;18639;50.716;7.086;2022-11-12T11:37:45;101875.75;;;12.35;92.38
32131;BME280;18639;50.716;7.086;2022-11-12T11:40:33;101879.13;;;12.37;91.82
32131;BME280;18639;50.716;7.086;2022-11-12T11:56:27;101861.59;;;12.42;88.64
32131;BME280;18639;50.716;7.086;2022-11-12T11:59:23;101869.66;;;12.36;89.99
32131;BME280;18639;50.716;7.086;2022-11-12T12:04:43;101870.16;;;12.44;89.50
32131;BME280;18639;50.716;7.086;2022-11-12T12:10:05;101872.59;;;12.47;90.27
32131;BME280;18639;50.716;7.086;2022-11-12T12:15:28;101871.69;;;12.48;88.94
32131;BME280;18639;50.716;7.086;2022-11-12T12:18:01;101865.25;;;12.38;88.68
32131;BME280;18639;50.716;7.086;2022-11-12T12:20:36;101850.66;;;12.35;90.43
32131;BME280;18639;50.716;7.086;2022-11-12T12:23:16;101854.50;;;12.45;90.62
32131;BME280;18639;50.716;7.086;2022-11-12T12:25:45;101847.56;;;12.46;90.97
32131;BME280;18639;50.716;7.086;2022-11-12T12:28:34;101856.66;;;12.54;89.75
32131;BME280;18639;50.716;7.086;2022-11-12T12:31:07;101843.22;;;12.46;90.04
32131;BME280;18639;50.716;7.086;2022-11-12T12:33:46;101855.38;;;12.63;88.84
32131;BME280;18639;50.716;7.086;2022-11-12T12:38:52;101828.56;;;12.45;89.59
32131;BME280;18639;50.716;7.086;2022-11-12T12:41:33;101817.34;;;12.45;89.79
32131;BME280;18639;50.716;7.086;2022-11-12T12:44:05;101839.03;;;12.61;90.11
32131;BME280;18639;50.716;7.086;2022-11-12T12:46:36;101836.44;;;12.61;89.79
32131;BME280;18639;50.716;7.086;2022-11-12T12:49:04;101830.97;;;12.67;89.50
32131;BME280;18639;50.716;7.086;2022-11-12T12:51:32;101805.78;;;12.52;89.63
32131;BME280;18639;50.716;7.086;2022-11-12T12:53:58;101830.66;;;12.73;89.16
32131;BME280;18639;50.716;7.086;2022-11-12T12:58:49;101832.66;;;12.85;90.26
32131;BME280;18639;50.716;7.086;2022-11-12T13:04:00;101830.44;;;12.95;89.44
32131;BME280;18639;50.716;7.086;2022-11-12T13:25:04;101816.00;;;13.06;91.81
32131;BME280;18639;50.716;7.086;2022-11-12T13:45:48;101809.25;;;13.20;89.34
32131;BME280;18639;50.716;7.086;2022-11-12T13:48:31;101783.72;;;13.12;90.55
32131;BME280;18639;50.716;7.086;2022-11-12T13:51:10;101806.25;;;13.12;91.96
32131;BME280;18639;50.716;7.086;2022-11-12T13:53:37;101781.06;;;12.96;90.20
32131;BME280;18639;50.716;7.086;2022-11-12T13:56:02;101763.13;;;12.92;90.50
32131;BME280;18639;50.716;7.086;2022-11-12T13:58:32;101770.16;;;12.90;90.47
32131;BME280;18639;50.716;7.086;2022-11-12T14:01:03;101801.06;;;13.12;89.67
32131;BME280;18639;50.716;7.086;2022-11-12T14:03:50;101760.25;;;12.81;90.74
32131;BME280;18639;50.716;7.086;2022-11-12T14:06:22;101779.38;;;12.95;91.02
32131;BME280;18639;50.716;7.086;2022-11-12T14:09:02;101797.66;;;13.09;91.69
32131;BME280;18639;50.716;7.086;2022-11-12T14:12:00;101786.84;;;13.01;93.82
32131;BME280;18639;50.716;7.086;2022-11-12T14:18:08;101795.47;;;13.02;92.82
32131;BME280;18639;50.716;7.086;2022-11-12T14:20:38;101793.44;;;12.91;94.20
32131;BME280;18639;50.716;7.086;2022-11-12T14:23:18;101808.69;;;12.97;92.41
32131;BME280;18639;50.716;7.086;2022-11-12T14:25:51;101751.63;;;12.63;92.84
32131;BME280;18639;50.716;7.086;2022-11-12T14:30:52;101786.06;;;12.99;92.97
32131;BME280;18639;50.716;7.086;2022-11-12T14:33:20;101787.75;;;13.00;92.56
32131;BME280;18639;50.716;7.086;2022-11-12T14:35:47;101782.72;;;12.97;93.75